»·PEaware :: N229D KSBD-KSAN

N229D :: KSBD-KSAN

FLIGHT INFORMATION

Flight Status: Arrived
Operator: Privately registered:
United States
More flights under this callsign
Pilot: Austin M. (5128)
Aircraft: MCDONNELL-DOUGLAS DC-6/B LIFTMASTER
(DC6)
More flights by this aircraft type
Origin: KSBD San Bernardino Intl
United States
Destination: KSAN San Diego Intl-Lindbergh
United States
More flights between these airports :: More routes between these airports
Route: +PDZ V186 HAILE V66 MZB
File this flight plan on PilotEdge
Remarks:
Altitude:
(Current/Filed)
90ft
Speed:
(Current/Filed)
220kts
Departed: 07-May-17 12:28 PM
Arrived: 07-May-17 01:17 PM
Distance/Time
Traveled:
82nm/0:49
Distance/Time
To Go:
Arrived

Flight Plot

Page will automatically refresh every two minutes.


Map Options




Map Legend


Flown Route
Filed Route
Departure Airport
Arrival Airport
Navaid (VOR, NDB)
Fix

Horizontal Profiles

Position Reports

Time Latitude Longitude Heading Altitude Ground
Speed
07-May-17 12:13 34.101857 -117.225256 90 1150ft 0kts
07-May-17 12:14 34.101857 -117.225256 90 1150ft 0kts
07-May-17 12:15 34.101857 -117.225256 90 1150ft 0kts
07-May-17 12:16 34.101857 -117.225256 90 1150ft 0kts
07-May-17 12:17 34.101857 -117.225256 90 1150ft 0kts
07-May-17 12:18 34.101857 -117.225256 90 1150ft 0kts
07-May-17 12:19 34.101857 -117.225256 90 1150ft 0kts
07-May-17 12:20 34.100857 -117.223487 170 1154ft 17kts
07-May-17 12:21 34.099359 -117.227736 246 1142ft 16kts
07-May-17 12:22 34.097737 -117.233204 249 1128ft 18kts
07-May-17 12:23 34.095904 -117.239340 250 1113ft 19kts
07-May-17 12:24 34.094005 -117.245828 250 1097ft 20kts
07-May-17 12:25 34.091899 -117.250907 155 1087ft 2kts
07-May-17 12:26 34.091824 -117.250866 154 1087ft 0kts
07-May-17 12:27 34.091824 -117.250866 154 1087ft 0kts
07-May-17 12:28 34.091240 -117.250478 137 1087ft 11kts
07-May-17 12:29 34.091025 -117.249410 71 1089ft 0kts
07-May-17 12:30 34.094492 -117.238118 71 1140ft 118kts
07-May-17 12:31 34.102654 -117.190066 117 1526ft 192kts
07-May-17 12:32 34.057934 -117.182236 205 2390ft 192kts
07-May-17 12:33 34.028995 -117.227172 255 3358ft 179kts
07-May-17 12:34 34.016440 -117.280052 242 4234ft 172kts
07-May-17 12:35 33.998677 -117.324687 243 4914ft 176kts
07-May-17 12:36 33.979902 -117.372486 243 5634ft 178kts
07-May-17 12:37 33.960082 -117.423363 244 6402ft 180kts
07-May-17 12:38 33.942579 -117.468342 244 7085ft 182kts
07-May-17 12:39 33.920574 -117.517974 214 7834ft 183kts
07-May-17 12:40 33.884361 -117.502998 142 8462ft 180kts
07-May-17 12:41 33.849168 -117.472655 143 8991ft 192kts
07-May-17 12:42 33.808022 -117.437757 143 8984ft 219kts
07-May-17 12:43 33.766656 -117.403067 144 8978ft 234kts
07-May-17 12:44 33.722133 -117.365909 144 8978ft 242kts
07-May-17 12:45 33.675308 -117.326832 144 8981ft 245kts
07-May-17 12:46 33.621127 -117.281714 144 8984ft 247kts
07-May-17 12:47 33.569285 -117.238620 144 8984ft 248kts
07-May-17 12:48 33.519894 -117.197621 144 8985ft 248kts
07-May-17 12:49 33.465249 -117.160235 170 8990ft 248kts
07-May-17 12:50 33.399580 -117.145713 169 8989ft 248kts
07-May-17 12:51 33.344350 -117.133812 169 8986ft 249kts
07-May-17 12:52 33.265864 -117.117075 170 8982ft 249kts
07-May-17 12:53 33.198021 -117.102674 170 8983ft 248kts
07-May-17 12:54 33.142848 -117.090920 170 8983ft 248kts
07-May-17 12:55 33.081382 -117.077941 171 8987ft 248kts
07-May-17 12:56 33.008286 -117.078021 218 8684ft 246kts
07-May-17 12:57 32.988971 -117.132662 251 8313ft 230kts
07-May-17 12:58 32.969843 -117.196033 249 7670ft 230kts
07-May-17 12:59 32.948412 -117.269901 250 6932ft 227kts
07-May-17 13:00 32.932396 -117.326120 250 6359ft 226kts
07-May-17 13:01 32.909554 -117.407276 250 5465ft 226kts
07-May-17 13:02 32.893270 -117.465878 250 4685ft 229kts
07-May-17 13:03 32.873697 -117.537031 250 3724ft 230kts
07-May-17 13:04 32.830000 -117.582201 200 2748ft 226kts
07-May-17 13:05 32.764539 -117.610427 199 2015ft 213kts
07-May-17 13:06 32.729380 -117.595026 92 2000ft 205kts
07-May-17 13:07 32.781744 -117.561910 28 1999ft 183kts
07-May-17 13:08 32.798427 -117.524136 71 1997ft 138kts
07-May-17 13:09 32.804790 -117.486723 112 2014ft 116kts
07-May-17 13:10 32.796166 -117.449982 111 2008ft 115kts
07-May-17 13:11 32.788033 -117.415577 111 2011ft 109kts
07-May-17 13:12 32.780222 -117.382884 112 2014ft 111kts
07-May-17 13:13 32.772223 -117.349586 111 2013ft 114kts
07-May-17 13:14 32.764615 -117.318003 111 2013ft 116kts
07-May-17 13:15 32.756747 -117.285393 111 1584ft 116kts
07-May-17 13:16 32.749977 -117.257272 112 1082ft 103kts
07-May-17 13:17 32.743617 -117.231161 112 622ft 105kts
07-May-17 13:18 32.737547 -117.206002 112 134ft 94kts
07-May-17 13:19 32.734063 -117.195096 194 22ft 0kts
07-May-17 13:20 32.733212 -117.195503 205 22ft 5kts

Navigation Log

Ident Type
Flight plan parsing failed, navigation log unavailable